Tadcaster, United Kingdom
Current Conditions -  °F | °C
As of 4:50 AM on Wednesday 22 Oct 2014 (Local Time) from EGXU Reporting Station
Clear Clear  
Wind Chill: 40°   Ceiling: Unl
Heat Index: 45°   Visibility: NA
Dew Point: 39°   Wind: 8mph
Humidity: 81%   Direction: 270°W
Pressure: 30.09"   Gusts: NA
Location:  53.88°N, 1.26°W
Report Text: EGXU 220350Z AUTO 27007KT //// // NCD 07/04 Q1019
Loading
Personal Weather Stations






























Interactive Weather Map
Tropical Storm Tracking
New forecast layout! Learn more

10-Day Weather Forecast

Advertisements
Track Severe Weather on mobile